No particular awareness of the weather is required.    There are no Weather-warnings


Meteo18 Weather Cam more information Meteo18 Weather Cam


Thunder radar more information blitzortung!


Rain radar more information rain snow radar


Visit our other weather sites:

Template documentation
and downloads

And another site



Weather Underground History page Text

Daily Summary for October 13, 2017 Units:  Both    English   Metric
« Previous Day
Next Day »
Daily Weekly Monthly Yearly Custom
  High: Low: Average:
Temperature: 70 °F /  21.1 °C 47.1 °F /  8.4 °C 57.4 °F /  14.1 °C
Dew Point: 58.8 °F /  14.9 °C 46.4 °F /  8.0 °C 53.2 °F /  11.8 °C
Humidity: 98 % 63 % 88 %
Wind Speed: 6 mph /  9.7 km/h - 0.5 mph /  0.8 km/h
Wind Gust: 9 mph /  14.5 km/h - -
Wind:- - SSE
Pressure: 30.4 in /  1028.3 hPa 30.3 in /  1026.3 hPa -
Precipitation: 0.02 in /  0.5 mm    
Historical Graphs
 
 
Tabular Data for October 13, 2017
Time Temperature Dew Point Pressure Wind Wind Speed Wind Gust Humidity Rainfall Rate (Hourly)
00:02 52.9 °F /  11.6 °C 52 °F /  11.1 °C 30.4 in /  1027.7 hPa Calm     97 % 0 in /  0.0 mm
00:12 53.2 °F /  11.8 °C 52.3 °F /  11.3 °C 30.4 in /  1027.7 hPa Calm     97 % 0 in /  0.0 mm
00:17 52.9 °F /  11.6 °C 52 °F /  11.1 °C 30.4 in /  1027.7 hPa Calm     97 % 0 in /  0.0 mm
00:22 52.9 °F /  11.6 °C 52 °F /  11.1 °C 30.4 in /  1027.7 hPa Calm     97 % 0 in /  0.0 mm
00:27 52.3 °F /  11.3 °C 51.3 °F /  10.7 °C 30.4 in /  1027.7 hPa Calm     96 % 0 in /  0.0 mm
00:32 52.2 °F /  11.2 °C 51.3 °F /  10.7 °C 30.4 in /  1027.7 hPa Calm     97 % 0 in /  0.0 mm
00:37 52.3 °F /  11.3 °C 51.4 °F /  10.8 °C 30.4 in /  1027.7 hPa Calm     97 % 0 in /  0.0 mm
00:42 52.7 °F /  11.5 °C 51.8 °F /  11.0 °C 30.4 in /  1027.7 hPa Calm     97 % 0.01 in /  0.3 mm
00:52 52.2 °F /  11.2 °C 51.3 °F /  10.7 °C 30.4 in /  1027.7 hPa Calm     97 % 0.01 in /  0.3 mm
01:02 51.6 °F /  10.9 °C 50.7 °F /  10.4 °C 30.4 in /  1027.7 hPa Calm     97 % 0.01 in /  0.3 mm
01:12 51.3 °F /  10.7 °C 50.4 °F /  10.2 °C 30.4 in /  1027.7 hPa Calm     97 % 0.01 in /  0.3 mm
01:17 51.1 °F /  10.6 °C 50.2 °F /  10.1 °C 30.4 in /  1027.7 hPa Calm     97 % 0.01 in /  0.3 mm
01:22 51.1 °F /  10.6 °C 50.2 °F /  10.1 °C 30.4 in /  1027.7 hPa Calm     97 % 0.01 in /  0.3 mm
01:27 50.9 °F /  10.5 °C 50 °F /  10.0 °C 30.4 in /  1027.7 hPa Calm     97 % 0.01 in /  0.3 mm
01:32 50.9 °F /  10.5 °C 50 °F /  10.0 °C 30.4 in /  1027.7 hPa Calm     97 % 0.01 in /  0.3 mm
01:37 50.7 °F /  10.4 °C 49.8 °F /  9.9 °C 30.4 in /  1027.7 hPa Calm     97 % 0.01 in /  0.3 mm
01:42 50.5 °F /  10.3 °C 49.6 °F /  9.8 °C 30.4 in /  1027.7 hPa Calm     97 % 0 in /  0.0 mm
01:47 50.5 °F /  10.3 °C 49.6 °F /  9.8 °C 30.4 in /  1027.7 hPa Calm     97 % 0 in /  0.0 mm
01:52 50.4 °F /  10.2 °C 49.5 °F /  9.7 °C 30.4 in /  1027.7 hPa Calm     97 % 0 in /  0.0 mm
01:57 50.4 °F /  10.2 °C 49.5 °F /  9.7 °C 30.4 in /  1027.7 hPa Calm     97 % 0 in /  0.0 mm
02:02 50.5 °F /  10.3 °C 49.6 °F /  9.8 °C 30.4 in /  1027.7 hPa Calm     97 % 0 in /  0.0 mm
02:12 50.2 °F /  10.1 °C 49.3 °F /  9.6 °C 30.4 in /  1027.7 hPa Calm     97 % 0 in /  0.0 mm
02:17 50.5 °F /  10.3 °C 49.6 °F /  9.8 °C 30.4 in /  1027.7 hPa Calm     97 % 0 in /  0.0 mm
02:22 50.5 °F /  10.3 °C 49.6 °F /  9.8 °C 30.4 in /  1027.7 hPa Calm     97 % 0 in /  0.0 mm
02:27 51.1 °F /  10.6 °C 50.5 °F /  10.3 °C 30.4 in /  1027.7 hPa Calm     98 % 0 in /  0.0 mm
02:32 50.9 °F /  10.5 °C 50 °F /  10.0 °C 30.4 in /  1027.7 hPa Calm     97 % 0 in /  0.0 mm
02:42 50.2 °F /  10.1 °C 49.3 °F /  9.6 °C 30.4 in /  1027.7 hPa Calm     97 % 0 in /  0.0 mm
02:47 50.2 °F /  10.1 °C 49.3 °F /  9.6 °C 30.4 in /  1027.7 hPa Calm     97 % 0 in /  0.0 mm
02:52 49.8 °F /  9.9 °C 48.9 °F /  9.4 °C 30.4 in /  1027.7 hPa Calm     97 % 0 in /  0.0 mm
02:57 50 °F /  10.0 °C 49.1 °F /  9.5 °C 30.4 in /  1027.7 hPa Calm     97 % 0 in /  0.0 mm
03:02 49.8 °F /  9.9 °C 48.9 °F /  9.4 °C 30.4 in /  1028.0 hPa Calm     97 % 0 in /  0.0 mm
03:12 50.5 °F /  10.3 °C 50 °F /  10.0 °C 30.4 in /  1027.7 hPa Calm     98 % 0 in /  0.0 mm
03:17 50.5 °F /  10.3 °C 50 °F /  10.0 °C 30.4 in /  1027.7 hPa Calm     98 % 0 in /  0.0 mm
03:22 50.4 °F /  10.2 °C 49.8 °F /  9.9 °C 30.4 in /  1027.7 hPa Calm     98 % 0 in /  0.0 mm
03:27 49.8 °F /  9.9 °C 48.9 °F /  9.4 °C 30.4 in /  1027.7 hPa Calm     97 % 0 in /  0.0 mm
03:37 49.6 °F /  9.8 °C 48.7 °F /  9.3 °C 30.4 in /  1027.7 hPa Calm     97 % 0 in /  0.0 mm
03:42 49.8 °F /  9.9 °C 48.9 °F /  9.4 °C 30.4 in /  1027.7 hPa Calm     97 % 0 in /  0.0 mm
03:47 49.5 °F /  9.7 °C 48.6 °F /  9.2 °C 30.4 in /  1027.7 hPa Calm     97 % 0 in /  0.0 mm
03:52 49.6 °F /  9.8 °C 48.7 °F /  9.3 °C 30.4 in /  1027.7 hPa Calm     97 % 0 in /  0.0 mm
03:57 49.6 °F /  9.8 °C 48.7 °F /  9.3 °C 30.4 in /  1027.7 hPa Calm     97 % 0 in /  0.0 mm
04:02 50.2 °F /  10.1 °C 49.6 °F /  9.8 °C 30.4 in /  1027.7 hPa Calm     98 % 0 in /  0.0 mm
04:12 50.2 °F /  10.1 °C 49.6 °F /  9.8 °C 30.4 in /  1027.7 hPa Calm     98 % 0 in /  0.0 mm
04:17 50.2 °F /  10.1 °C 49.6 °F /  9.8 °C 30.4 in /  1027.7 hPa Calm     98 % 0 in /  0.0 mm
04:22 50.2 °F /  10.1 °C 49.6 °F /  9.8 °C 30.4 in /  1027.7 hPa Calm     98 % 0 in /  0.0 mm
04:32 50.2 °F /  10.1 °C 49.6 °F /  9.8 °C 30.4 in /  1027.7 hPa Calm     98 % 0 in /  0.0 mm
04:42 49.8 °F /  9.9 °C 48.9 °F /  9.4 °C 30.4 in /  1027.7 hPa Calm     97 % 0 in /  0.0 mm
04:47 49.6 °F /  9.8 °C 48.7 °F /  9.3 °C 30.4 in /  1027.7 hPa Calm     97 % 0 in /  0.0 mm
04:52 49.6 °F /  9.8 °C 48.7 °F /  9.3 °C 30.4 in /  1027.7 hPa Calm     97 % 0 in /  0.0 mm
04:57 49.5 °F /  9.7 °C 48.6 °F /  9.2 °C 30.3 in /  1027.3 hPa Calm     97 % 0 in /  0.0 mm
05:02 49.6 °F /  9.8 °C 48.7 °F /  9.3 °C 30.4 in /  1027.7 hPa Calm     97 % 0 in /  0.0 mm
05:07 49.8 °F /  9.9 °C 49.3 °F /  9.6 °C 30.3 in /  1027.3 hPa Calm     98 % 0 in /  0.0 mm
05:12 50.2 °F /  10.1 °C 49.6 °F /  9.8 °C 30.4 in /  1027.7 hPa Calm     98 % 0 in /  0.0 mm
05:22 50.2 °F /  10.1 °C 49.6 °F /  9.8 °C 30.3 in /  1027.3 hPa Calm     98 % 0 in /  0.0 mm
05:32 49.5 °F /  9.7 °C 48.6 °F /  9.2 °C 30.3 in /  1027.3 hPa Calm     97 % 0 in /  0.0 mm
05:42 49.1 °F /  9.5 °C 48.2 °F /  9.0 °C 30.4 in /  1027.7 hPa Calm     97 % 0 in /  0.0 mm
05:47 49.3 °F /  9.6 °C 48.4 °F /  9.1 °C 30.4 in /  1027.7 hPa Calm     97 % 0 in /  0.0 mm
05:52 48.9 °F /  9.4 °C 48 °F /  8.9 °C 30.4 in /  1027.7 hPa Calm     97 % 0 in /  0.0 mm
05:57 48.4 °F /  9.1 °C 47.5 °F /  8.6 °C 30.4 in /  1027.7 hPa Calm     97 % 0 in /  0.0 mm
06:02 48 °F /  8.9 °C 47.1 °F /  8.4 °C 30.4 in /  1027.7 hPa Calm     97 % 0 in /  0.0 mm
06:12 48.6 °F /  9.2 °C 48 °F /  8.9 °C 30.3 in /  1027.3 hPa Calm     98 % 0 in /  0.0 mm
06:17 48.6 °F /  9.2 °C 48 °F /  8.9 °C 30.3 in /  1027.3 hPa Calm     98 % 0 in /  0.0 mm
06:22 48.7 °F /  9.3 °C 48.2 °F /  9.0 °C 30.4 in /  1027.7 hPa Calm     98 % 0 in /  0.0 mm
06:27 48.6 °F /  9.2 °C 48 °F /  8.9 °C 30.4 in /  1027.7 hPa Calm     98 % 0 in /  0.0 mm
06:32 48.6 °F /  9.2 °C 48 °F /  8.9 °C 30.4 in /  1027.7 hPa Calm     98 % 0 in /  0.0 mm
06:37 48.6 °F /  9.2 °C 48 °F /  8.9 °C 30.4 in /  1027.7 hPa Calm     98 % 0 in /  0.0 mm
06:47 48.2 °F /  9.0 °C 47.7 °F /  8.7 °C 30.4 in /  1027.7 hPa Calm     98 % 0 in /  0.0 mm
06:52 48 °F /  8.9 °C 47.1 °F /  8.4 °C 30.4 in /  1027.7 hPa Calm     97 % 0 in /  0.0 mm
07:02 48.7 °F /  9.3 °C 48.2 °F /  9.0 °C 30.4 in /  1027.7 hPa Calm     98 % 0.01 in /  0.3 mm
07:12 48.4 °F /  9.1 °C 47.8 °F /  8.8 °C 30.3 in /  1027.3 hPa Calm     98 % 0.01 in /  0.3 mm
07:17 48 °F /  8.9 °C 47.1 °F /  8.4 °C 30.3 in /  1027.3 hPa Calm     97 % 0.01 in /  0.3 mm
07:22 47.8 °F /  8.8 °C 46.9 °F /  8.3 °C 30.3 in /  1027.3 hPa Calm     97 % 0.01 in /  0.3 mm
07:32 47.8 °F /  8.8 °C 46.9 °F /  8.3 °C 30.3 in /  1027.3 hPa Calm     97 % 0.01 in /  0.3 mm
07:42 48.6 °F /  9.2 °C 48 °F /  8.9 °C 30.3 in /  1027.3 hPa Calm     98 % 0.01 in /  0.3 mm
07:47 48.6 °F /  9.2 °C 48 °F /  8.9 °C 30.3 in /  1027.3 hPa Calm   1 mph /  1.6 km/h 98 % 0.01 in /  0.3 mm
07:52 48.6 °F /  9.2 °C 48 °F /  8.9 °C 30.3 in /  1027.3 hPa Calm   1 mph /  1.6 km/h 98 % 0.01 in /  0.3 mm
07:57 48.4 °F /  9.1 °C 47.8 °F /  8.8 °C 30.3 in /  1027.3 hPa Calm   2 mph /  3.2 km/h 98 % 0 in /  0.0 mm
08:02 47.8 °F /  8.8 °C 47.3 °F /  8.5 °C 30.3 in /  1027.3 hPa North 1 mph /  1.6 km/h 2 mph /  3.2 km/h 98 % 0 in /  0.0 mm
08:12 47.1 °F /  8.4 °C 46.4 °F /  8.0 °C 30.4 in /  1027.7 hPa Calm   2 mph /  3.2 km/h 97 % 0 in /  0.0 mm
08:17 47.1 °F /  8.4 °C 46.4 °F /  8.0 °C 30.4 in /  1027.7 hPa Calm   2 mph /  3.2 km/h 97 % 0 in /  0.0 mm
08:22 47.1 °F /  8.4 °C 46.4 °F /  8.0 °C 30.4 in /  1027.7 hPa Calm   2 mph /  3.2 km/h 97 % 0 in /  0.0 mm
08:27 47.1 °F /  8.4 °C 46.4 °F /  8.0 °C 30.4 in /  1027.7 hPa Calm     97 % 0 in /  0.0 mm
08:32 47.1 °F /  8.4 °C 46.4 °F /  8.0 °C 30.4 in /  1027.7 hPa Calm     97 % 0 in /  0.0 mm
08:42 47.3 °F /  8.5 °C 46.8 °F /  8.2 °C 30.4 in /  1027.7 hPa Calm     98 % 0 in /  0.0 mm
08:52 48 °F /  8.9 °C 47.5 °F /  8.6 °C 30.4 in /  1027.7 hPa Calm     98 % 0 in /  0.0 mm
09:02 48.7 °F /  9.3 °C 48.2 °F /  9.0 °C 30.4 in /  1027.7 hPa Calm     98 % 0 in /  0.0 mm
09:07 49.3 °F /  9.6 °C 48.7 °F /  9.3 °C 30.4 in /  1027.7 hPa Calm     98 % 0 in /  0.0 mm
09:12 49.5 °F /  9.7 °C 48.9 °F /  9.4 °C 30.4 in /  1027.7 hPa Calm     98 % 0 in /  0.0 mm
09:17 50.2 °F /  10.1 °C 49.6 °F /  9.8 °C 30.4 in /  1027.7 hPa Calm     98 % 0 in /  0.0 mm
09:22 50.7 °F /  10.4 °C 50.2 °F /  10.1 °C 30.4 in /  1027.7 hPa Calm     98 % 0 in /  0.0 mm
09:32 51.3 °F /  10.7 °C 50.7 °F /  10.4 °C 30.4 in /  1027.7 hPa Calm     98 % 0 in /  0.0 mm
09:37 51.4 °F /  10.8 °C 50.9 °F /  10.5 °C 30.4 in /  1027.7 hPa Calm     98 % 0 in /  0.0 mm
09:42 51.8 °F /  11.0 °C 51.3 °F /  10.7 °C 30.4 in /  1027.7 hPa Calm     98 % 0 in /  0.0 mm
09:52 52.3 °F /  11.3 °C 51.8 °F /  11.0 °C 30.4 in /  1027.7 hPa Calm     98 % 0 in /  0.0 mm
09:57 52.5 °F /  11.4 °C 52 °F /  11.1 °C 30.4 in /  1027.7 hPa Calm     98 % 0 in /  0.0 mm
10:02 52.7 °F /  11.5 °C 52.2 °F /  11.2 °C 30.4 in /  1027.7 hPa Calm     98 % 0 in /  0.0 mm
10:12 52.9 °F /  11.6 °C 52.3 °F /  11.3 °C 30.4 in /  1028.0 hPa Calm     98 % 0 in /  0.0 mm
10:17 53.1 °F /  11.7 °C 52.5 °F /  11.4 °C 30.4 in /  1028.0 hPa Calm     98 % 0 in /  0.0 mm
10:22 53.4 °F /  11.9 °C 52.9 °F /  11.6 °C 30.4 in /  1028.0 hPa Calm     98 % 0 in /  0.0 mm
10:27 54 °F /  12.2 °C 53.4 °F /  11.9 °C 30.4 in /  1028.0 hPa Calm     98 % 0 in /  0.0 mm
10:32 54.7 °F /  12.6 °C 54.1 °F /  12.3 °C 30.4 in /  1028.0 hPa Calm     98 % 0 in /  0.0 mm
10:42 54.7 °F /  12.6 °C 54.1 °F /  12.3 °C 30.4 in /  1028.0 hPa Calm   1 mph /  1.6 km/h 98 % 0 in /  0.0 mm
10:52 55.8 °F /  13.2 °C 55.2 °F /  12.9 °C 30.4 in /  1028.0 hPa Calm   1 mph /  1.6 km/h 98 % 0 in /  0.0 mm
10:57 56.1 °F /  13.4 °C 55.6 °F /  13.1 °C 30.4 in /  1028.0 hPa Calm   2 mph /  3.2 km/h 98 % 0 in /  0.0 mm
11:02 56.3 °F /  13.5 °C 55.8 °F /  13.2 °C 30.4 in /  1028.0 hPa Calm   2 mph /  3.2 km/h 98 % 0 in /  0.0 mm
11:12 56.5 °F /  13.6 °C 55.9 °F /  13.3 °C 30.4 in /  1028.3 hPa Calm   2 mph /  3.2 km/h 98 % 0 in /  0.0 mm
11:17 56.1 °F /  13.4 °C 55.2 °F /  12.9 °C 30.4 in /  1028.3 hPa Calm     97 % 0 in /  0.0 mm
11:22 56.5 °F /  13.6 °C 55.6 °F /  13.1 °C 30.4 in /  1028.3 hPa Calm     97 % 0 in /  0.0 mm
11:32 57 °F /  13.9 °C 56.5 °F /  13.6 °C 30.4 in /  1028.3 hPa Calm     98 % 0 in /  0.0 mm
11:42 57.6 °F /  14.2 °C 56.7 °F /  13.7 °C 30.4 in /  1028.3 hPa ENE 3 mph /  4.8 km/h   97 % 0 in /  0.0 mm
11:52 58.5 °F /  14.7 °C 57.6 °F /  14.2 °C 30.4 in /  1028.3 hPa Calm   3 mph /  4.8 km/h 97 % 0 in /  0.0 mm
11:57 58.8 °F /  14.9 °C 57.9 °F /  14.4 °C 30.4 in /  1028.3 hPa Calm   5 mph /  8.0 km/h 97 % 0 in /  0.0 mm
12:02 59.2 °F /  15.1 °C 57.7 °F /  14.3 °C 30.4 in /  1028.3 hPa ENE 2 mph /  3.2 km/h 5 mph /  8.0 km/h 95 % 0 in /  0.0 mm
12:12 60.3 °F /  15.7 °C 57.6 °F /  14.2 °C 30.4 in /  1028.3 hPa East 2 mph /  3.2 km/h 6 mph /  9.7 km/h 91 % 0 in /  0.0 mm
12:17 60.4 °F /  15.8 °C 57.2 °F /  14.0 °C 30.4 in /  1028.3 hPa Calm   6 mph /  9.7 km/h 89 % 0 in /  0.0 mm
12:22 61 °F /  16.1 °C 57 °F /  13.9 °C 30.4 in /  1028.3 hPa East 1 mph /  1.6 km/h 5 mph /  8.0 km/h 87 % 0 in /  0.0 mm
12:32 62.1 °F /  16.7 °C 57.7 °F /  14.3 °C 30.4 in /  1028.0 hPa ESE 3 mph /  4.8 km/h 4 mph /  6.4 km/h 86 % 0 in /  0.0 mm
12:42 62.2 °F /  16.8 °C 57.4 °F /  14.1 °C 30.4 in /  1028.0 hPa SSE 1 mph /  1.6 km/h 4 mph /  6.4 km/h 84 % 0 in /  0.0 mm
12:52 63.1 °F /  17.3 °C 57.6 °F /  14.2 °C 30.4 in /  1028.0 hPa ESE 3 mph /  4.8 km/h 6 mph /  9.7 km/h 82 % 0 in /  0.0 mm
13:02 63.3 °F /  17.4 °C 57.4 °F /  14.1 °C 30.4 in /  1028.0 hPa East 3 mph /  4.8 km/h 6 mph /  9.7 km/h 81 % 0 in /  0.0 mm
13:12 63.9 °F /  17.7 °C 57.9 °F /  14.4 °C 30.4 in /  1027.7 hPa East 1 mph /  1.6 km/h 6 mph /  9.7 km/h 81 % 0 in /  0 mm
13:17 64 °F /  17.8 °C 57.7 °F /  14.3 °C 30.4 in /  1027.7 hPa Calm   6 mph /  9.7 km/h 80 % 0 in /  0.0 mm
13:22 64.2 °F /  17.9 °C 57.9 °F /  14.4 °C 30.4 in /  1027.7 hPa ENE 1 mph /  1.6 km/h 6 mph /  9.7 km/h 80 % 0 in /  0.0 mm
13:32 65.1 °F /  18.4 °C 58.1 °F /  14.5 °C 30.4 in /  1027.7 hPa ENE 3 mph /  4.8 km/h 6 mph /  9.7 km/h 78 % 0 in /  0.0 mm
13:42 65.5 °F /  18.6 °C 58.5 °F /  14.7 °C 30.4 in /  1027.7 hPa ENE 2 mph /  3.2 km/h 4 mph /  6.4 km/h 78 % 0 in /  0.0 mm
13:47 65.5 °F /  18.6 °C 58.8 °F /  14.9 °C 30.4 in /  1027.7 hPa East 6 mph /  9.7 km/h 7 mph /  11.3 km/h 79 % 0 in /  0.0 mm
13:52 65.5 °F /  18.6 °C 58.1 °F /  14.5 °C 30.4 in /  1027.7 hPa ENE 3 mph /  4.8 km/h 7 mph /  11.3 km/h 77 % 0 in /  0.0 mm
14:02 65.8 °F /  18.8 °C 57.7 °F /  14.3 °C 30.3 in /  1027.3 hPa ESE 3 mph /  4.8 km/h 8 mph /  12.9 km/h 75 % 0 in /  0.0 mm
14:12 66.4 °F /  19.1 °C 57.4 °F /  14.1 °C 30.3 in /  1027.3 hPa East 1 mph /  1.6 km/h 6 mph /  9.7 km/h 73 % 0 in /  0.0 mm
14:17 66.6 °F /  19.2 °C 57.6 °F /  14.2 °C 30.3 in /  1027.3 hPa ENE 2 mph /  3.2 km/h 9 mph /  14.5 km/h 73 % 0 in /  0.0 mm
14:22 66.9 °F /  19.4 °C 57.6 °F /  14.2 °C 30.3 in /  1027.3 hPa East 5 mph /  8.0 km/h 9 mph /  14.5 km/h 72 % 0 in /  0.0 mm
14:27 67.1 °F /  19.5 °C 57.4 °F /  14.1 °C 30.3 in /  1027.3 hPa SE 1 mph /  1.6 km/h 9 mph /  14.5 km/h 71 % 0 in /  0.0 mm
14:32 67.5 °F /  19.7 °C 57.4 °F /  14.1 °C 30.3 in /  1027.3 hPa ESE 2 mph /  3.2 km/h 7 mph /  11.3 km/h 70 % 0 in /  0.0 mm
14:42 68.2 °F /  20.1 °C 58.1 °F /  14.5 °C 30.3 in /  1027.0 hPa East 4 mph /  6.4 km/h 5 mph /  8.0 km/h 70 % 0 in /  0.0 mm
14:47 68.2 °F /  20.1 °C 57.2 °F /  14.0 °C 30.3 in /  1027.0 hPa SSE 3 mph /  4.8 km/h 6 mph /  9.7 km/h 68 % 0 in /  0.0 mm
14:52 68.4 °F /  20.2 °C 57.7 °F /  14.3 °C 30.3 in /  1027.0 hPa Calm   6 mph /  9.7 km/h 69 % 0 in /  0.0 mm
14:57 68.5 °F /  20.3 °C 57.9 °F /  14.4 °C 30.3 in /  1027.0 hPa ENE 3 mph /  4.8 km/h 6 mph /  9.7 km/h 69 % 0 in /  0.0 mm
15:02 68.4 °F /  20.2 °C 57.4 °F /  14.1 °C 30.3 in /  1027.0 hPa SSE 2 mph /  3.2 km/h 5 mph /  8.0 km/h 68 % 0 in /  0.0 mm
15:12 68.7 °F /  20.4 °C 57.7 °F /  14.3 °C 30.3 in /  1027.0 hPa Calm   5 mph /  8.0 km/h 68 % 0 in /  0.0 mm
15:17 69.3 °F /  20.7 °C 57.9 °F /  14.4 °C 30.3 in /  1027.0 hPa ENE 1 mph /  1.6 km/h 4 mph /  6.4 km/h 67 % 0 in /  0.0 mm
15:22 69.4 °F /  20.8 °C 57.9 °F /  14.4 °C 30.3 in /  1027.0 hPa SSW 1 mph /  1.6 km/h 4 mph /  6.4 km/h 67 % 0 in /  0.0 mm
15:32 69.1 °F /  20.6 °C 57.2 °F /  14.0 °C 30.3 in /  1027.0 hPa Calm   4 mph /  6.4 km/h 66 % 0 in /  0.0 mm
15:37 68.7 °F /  20.4 °C 57.7 °F /  14.3 °C 30.3 in /  1027.0 hPa Calm   4 mph /  6.4 km/h 68 % 0 in /  0.0 mm
15:42 69.1 °F /  20.6 °C 58.1 °F /  14.5 °C 30.3 in /  1027.0 hPa Calm   4 mph /  6.4 km/h 68 % 0 in /  0.0 mm
15:47 69.3 °F /  20.7 °C 57.9 °F /  14.4 °C 30.3 in /  1027.0 hPa East 2 mph /  3.2 km/h 8 mph /  12.9 km/h 67 % 0 in /  0.0 mm
15:52 69.6 °F /  20.9 °C 57.7 °F /  14.3 °C 30.3 in /  1027.0 hPa Calm   8 mph /  12.9 km/h 66 % 0 in /  0.0 mm
15:57 69.4 °F /  20.8 °C 57.2 °F /  14.0 °C 30.3 in /  1027.0 hPa Calm   8 mph /  12.9 km/h 65 % 0 in /  0.0 mm
16:02 69.4 °F /  20.8 °C 57.9 °F /  14.4 °C 30.3 in /  1027.0 hPa NE 1 mph /  1.6 km/h 4 mph /  6.4 km/h 67 % 0 in /  0.0 mm
16:07 69.3 °F /  20.7 °C 57.9 °F /  14.4 °C 30.3 in /  1027.0 hPa North 2 mph /  3.2 km/h 4 mph /  6.4 km/h 67 % 0 in /  0.0 mm
16:12 69.3 °F /  20.7 °C 57.4 °F /  14.1 °C 30.3 in /  1027.0 hPa Calm   4 mph /  6.4 km/h 66 % 0 in /  0.0 mm
16:17 69.3 °F /  20.7 °C 57.4 °F /  14.1 °C 30.3 in /  1026.6 hPa ENE 2 mph /  3.2 km/h 4 mph /  6.4 km/h 66 % 0 in /  0.0 mm
16:22 69.3 °F /  20.7 °C 57.4 °F /  14.1 °C 30.3 in /  1026.6 hPa Calm   4 mph /  6.4 km/h 66 % 0 in /  0.0 mm
16:32 69.4 °F /  20.8 °C 57.2 °F /  14.0 °C 30.3 in /  1026.6 hPa East 2 mph /  3.2 km/h 3 mph /  4.8 km/h 65 % 0 in /  0.0 mm
16:37 69.6 °F /  20.9 °C 57.4 °F /  14.1 °C 30.3 in /  1026.6 hPa Calm   5 mph /  8.0 km/h 65 % 0 in /  0.0 mm
16:42 70 °F /  21.1 °C 57.2 °F /  14.0 °C 30.3 in /  1026.6 hPa East 2 mph /  3.2 km/h 5 mph /  8.0 km/h 64 % 0 in /  0.0 mm
16:47 69.8 °F /  21.0 °C 57.6 °F /  14.2 °C 30.3 in /  1026.6 hPa ENE 2 mph /  3.2 km/h 5 mph /  8.0 km/h 65 % 0 in /  0.0 mm
16:52 69.8 °F /  21.0 °C 57 °F /  13.9 °C 30.3 in /  1026.6 hPa ENE 2 mph /  3.2 km/h 5 mph /  8.0 km/h 64 % 0 in /  0.0 mm
16:57 70 °F /  21.1 °C 57.2 °F /  14.0 °C 30.3 in /  1026.6 hPa NE 2 mph /  3.2 km/h 5 mph /  8.0 km/h 64 % 0 in /  0.0 mm
17:02 69.8 °F /  21.0 °C 57 °F /  13.9 °C 30.3 in /  1026.6 hPa Calm   4 mph /  6.4 km/h 64 % 0 in /  0.0 mm
17:12 70 °F /  21.1 °C 57.7 °F /  14.3 °C 30.3 in /  1026.6 hPa Calm   4 mph /  6.4 km/h 65 % 0 in /  0.0 mm
17:17 70 °F /  21.1 °C 56.8 °F /  13.8 °C 30.3 in /  1026.6 hPa ENE 2 mph /  3.2 km/h 3 mph /  4.8 km/h 63 % 0 in /  0.0 mm
17:22 69.6 °F /  20.9 °C 56.5 °F /  13.6 °C 30.3 in /  1026.6 hPa ENE 3 mph /  4.8 km/h 4 mph /  6.4 km/h 63 % 0 in /  0.0 mm
17:32 69.4 °F /  20.8 °C 56.7 °F /  13.7 °C 30.3 in /  1026.6 hPa East 1 mph /  1.6 km/h 3 mph /  4.8 km/h 64 % 0 in /  0.0 mm
17:37 69.4 °F /  20.8 °C 57.2 °F /  14.0 °C 30.3 in /  1026.6 hPa Calm   3 mph /  4.8 km/h 65 % 0 in /  0.0 mm
17:47 69.4 °F /  20.8 °C 56.7 °F /  13.7 °C 30.3 in /  1026.6 hPa East 1 mph /  1.6 km/h 3 mph /  4.8 km/h 64 % 0 in /  0.0 mm
17:52 69.4 °F /  20.8 °C 56.7 °F /  13.7 °C 30.3 in /  1026.6 hPa ENE 2 mph /  3.2 km/h 3 mph /  4.8 km/h 64 % 0 in /  0.0 mm
17:57 69.4 °F /  20.8 °C 56.7 °F /  13.7 °C 30.3 in /  1026.6 hPa ENE 1 mph /  1.6 km/h 3 mph /  4.8 km/h 64 % 0 in /  0.0 mm
18:02 69.4 °F /  20.8 °C 57.2 °F /  14.0 °C 30.3 in /  1026.6 hPa Calm   3 mph /  4.8 km/h 65 % 0 in /  0.0 mm
18:07 69.4 °F /  20.8 °C 57.2 °F /  14.0 °C 30.3 in /  1026.6 hPa East 1 mph /  1.6 km/h 3 mph /  4.8 km/h 65 % 0 in /  0.0 mm
18:12 69.3 °F /  20.7 °C 57.4 °F /  14.1 °C 30.3 in /  1026.6 hPa Calm   2 mph /  3.2 km/h 66 % 0 in /  0.0 mm
18:17 69.3 °F /  20.7 °C 57.4 °F /  14.1 °C 30.3 in /  1026.6 hPa Calm   1 mph /  1.6 km/h 66 % 0 in /  0.0 mm
18:27 69.1 °F /  20.6 °C 57.7 °F /  14.3 °C 30.3 in /  1026.3 hPa Calm     67 % 0 in /  0.0 mm
18:32 69.1 °F /  20.6 °C 57.2 °F /  14.0 °C 30.3 in /  1026.3 hPa Calm     66 % 0 in /  0.0 mm
18:42 68.9 °F /  20.5 °C 57.9 °F /  14.4 °C 30.3 in /  1026.3 hPa Calm     68 % 0 in /  0.0 mm
18:47 68.2 °F /  20.1 °C 58.1 °F /  14.5 °C 30.3 in /  1026.6 hPa Calm     70 % 0 in /  0.0 mm
18:52 67.3 °F /  19.6 °C 57.6 °F /  14.2 °C 30.3 in /  1026.6 hPa Calm     71 % 0 in /  0.0 mm
18:57 66.2 °F /  19.0 °C 57.2 °F /  14.0 °C 30.3 in /  1026.6 hPa Calm     73 % 0 in /  0.0 mm
19:02 65.7 °F /  18.7 °C 57.2 °F /  14.0 °C 30.3 in /  1026.6 hPa Calm     74 % 0 in /  0.0 mm
19:07 64.9 °F /  18.3 °C 56.8 °F /  13.8 °C 30.3 in /  1026.6 hPa Calm     75 % 0 in /  0.0 mm
19:12 64.2 °F /  17.9 °C 57.2 °F /  14.0 °C 30.3 in /  1026.6 hPa Calm     78 % 0 in /  0.0 mm
19:17 63.3 °F /  17.4 °C 56.7 °F /  13.7 °C 30.3 in /  1026.6 hPa Calm     79 % 0 in /  0.0 mm
19:22 63 °F /  17.2 °C 56.7 °F /  13.7 °C 30.3 in /  1026.6 hPa Calm     80 % 0 in /  0.0 mm
19:27 63 °F /  17.2 °C 56.7 °F /  13.7 °C 30.3 in /  1026.6 hPa Calm     80 % 0 in /  0.0 mm
19:37 62.1 °F /  16.7 °C 56.5 °F /  13.6 °C 30.3 in /  1026.6 hPa WNW 1 mph /  1.6 km/h 1 mph /  1.6 km/h 82 % 0 in /  0.0 mm
19:42 61.3 °F /  16.3 °C 56.8 °F /  13.8 °C 30.3 in /  1026.6 hPa WNW 1 mph /  1.6 km/h 1 mph /  1.6 km/h 85 % 0 in /  0.0 mm
19:47 61.2 °F /  16.2 °C 56.7 °F /  13.7 °C 30.3 in /  1026.6 hPa Calm   1 mph /  1.6 km/h 85 % 0 in /  0.0 mm
19:52 61.3 °F /  16.3 °C 56.5 °F /  13.6 °C 30.3 in /  1026.6 hPa North 1 mph /  1.6 km/h 2 mph /  3.2 km/h 84 % 0 in /  0.0 mm
19:57 61.2 °F /  16.2 °C 56.3 °F /  13.5 °C 30.3 in /  1026.6 hPa Calm   2 mph /  3.2 km/h 84 % 0 in /  0.0 mm
20:02 61 °F /  16.1 °C 56.1 °F /  13.4 °C 30.3 in /  1026.6 hPa Calm   2 mph /  3.2 km/h 84 % 0 in /  0.0 mm
20:12 60.4 °F /  15.8 °C 55.9 °F /  13.3 °C 30.3 in /  1026.6 hPa NNW 2 mph /  3.2 km/h 2 mph /  3.2 km/h 85 % 0 in /  0.0 mm
20:17 60.6 °F /  15.9 °C 55.8 °F /  13.2 °C 30.3 in /  1026.6 hPa NNW 2 mph /  3.2 km/h 2 mph /  3.2 km/h 84 % 0 in /  0.0 mm
20:22 60.4 °F /  15.8 °C 55.2 °F /  12.9 °C 30.3 in /  1027.0 hPa Calm   2 mph /  3.2 km/h 83 % 0 in /  0.0 mm
20:27 60.1 °F /  15.6 °C 55.6 °F /  13.1 °C 30.3 in /  1027.0 hPa NW 1 mph /  1.6 km/h 2 mph /  3.2 km/h 85 % 0 in /  0.0 mm
20:37 59.7 °F /  15.4 °C 55.2 °F /  12.9 °C 30.3 in /  1027.0 hPa NW 2 mph /  3.2 km/h 2 mph /  3.2 km/h 85 % 0 in /  0.0 mm
20:47 59.5 °F /  15.3 °C 55 °F /  12.8 °C 30.3 in /  1027.0 hPa Calm   2 mph /  3.2 km/h 85 % 0 in /  0.0 mm
20:52 59.4 °F /  15.2 °C 55.2 °F /  12.9 °C 30.3 in /  1027.0 hPa NNW 1 mph /  1.6 km/h 2 mph /  3.2 km/h 86 % 0 in /  0.0 mm
20:57 59.2 °F /  15.1 °C 55 °F /  12.8 °C 30.3 in /  1027.3 hPa Calm   2 mph /  3.2 km/h 86 % 0 in /  0.0 mm
21:02 58.8 °F /  14.9 °C 54.7 °F /  12.6 °C 30.3 in /  1027.0 hPa Calm   2 mph /  3.2 km/h 86 % 0 in /  0.0 mm
21:12 58.6 °F /  14.8 °C 55 °F /  12.8 °C 30.3 in /  1027.0 hPa Calm   1 mph /  1.6 km/h 88 % 0 in /  0.0 mm
21:17 58.8 °F /  14.9 °C 55 °F /  12.8 °C 30.3 in /  1027.0 hPa Calm   1 mph /  1.6 km/h 87 % 0 in /  0.0 mm
21:22 59 °F /  15.0 °C 55.2 °F /  12.9 °C 30.3 in /  1027.3 hPa Calm   1 mph /  1.6 km/h 87 % 0 in /  0.0 mm
21:32 58.8 °F /  14.9 °C 54.7 °F /  12.6 °C 30.3 in /  1027.0 hPa WNW 1 mph /  1.6 km/h 1 mph /  1.6 km/h 86 % 0 in /  0.0 mm
21:37 57.9 °F /  14.4 °C 54.7 °F /  12.6 °C 30.3 in /  1027.0 hPa Calm   1 mph /  1.6 km/h 89 % 0 in /  0.0 mm
21:42 57.6 °F /  14.2 °C 54.3 °F /  12.4 °C 30.3 in /  1027.0 hPa Calm   1 mph /  1.6 km/h 89 % 0 in /  0.0 mm
21:47 57.2 °F /  14.0 °C 54.7 °F /  12.6 °C 30.3 in /  1027.0 hPa Calm   2 mph /  3.2 km/h 91 % 0 in /  0.0 mm
21:52 57.4 °F /  14.1 °C 54.9 °F /  12.7 °C 30.3 in /  1027.3 hPa Calm   2 mph /  3.2 km/h 91 % 0 in /  0.0 mm
21:57 57.4 °F /  14.1 °C 54.5 °F /  12.5 °C 30.3 in /  1027.0 hPa Calm   1 mph /  1.6 km/h 90 % 0 in /  0.0 mm
22:02 57.6 °F /  14.2 °C 54.7 °F /  12.6 °C 30.3 in /  1027.0 hPa North 1 mph /  1.6 km/h 1 mph /  1.6 km/h 90 % 0 in /  0.0 mm
22:12 57.6 °F /  14.2 °C 54.7 °F /  12.6 °C 30.3 in /  1027.0 hPa Calm   1 mph /  1.6 km/h 90 % 0 in /  0.0 mm
22:22 57.4 °F /  14.1 °C 54.1 °F /  12.3 °C 30.3 in /  1027.0 hPa Calm   1 mph /  1.6 km/h 89 % 0 in /  0.0 mm
22:32 56.5 °F /  13.6 °C 54 °F /  12.2 °C 30.3 in /  1027.3 hPa WNW 1 mph /  1.6 km/h 2 mph /  3.2 km/h 91 % 0 in /  0.0 mm
22:37 55.9 °F /  13.3 °C 53.6 °F /  12.0 °C 30.3 in /  1027.3 hPa WNW 1 mph /  1.6 km/h 2 mph /  3.2 km/h 92 % 0 in /  0.0 mm
22:42 55.6 °F /  13.1 °C 53.2 °F /  11.8 °C 30.3 in /  1027.3 hPa WNW 1 mph /  1.6 km/h 2 mph /  3.2 km/h 92 % 0 in /  0.0 mm
22:52 55.9 °F /  13.3 °C 54.3 °F /  12.4 °C 30.3 in /  1027.3 hPa NNW 1 mph /  1.6 km/h 2 mph /  3.2 km/h 94 % 0 in /  0.0 mm
22:57 56.1 °F /  13.4 °C 54.1 °F /  12.3 °C 30.3 in /  1027.3 hPa Calm   2 mph /  3.2 km/h 93 % 0 in /  0.0 mm
23:02 55.9 °F /  13.3 °C 53.6 °F /  12.0 °C 30.3 in /  1027.3 hPa Calm   2 mph /  3.2 km/h 92 % 0 in /  0.0 mm
23:12 56.1 °F /  13.4 °C 54.1 °F /  12.3 °C 30.3 in /  1027.3 hPa Calm   1 mph /  1.6 km/h 93 % 0 in /  0.0 mm
23:17 56.1 °F /  13.4 °C 54.1 °F /  12.3 °C 30.3 in /  1027.3 hPa Calm   1 mph /  1.6 km/h 93 % 0 in /  0.0 mm
23:22 56.1 °F /  13.4 °C 54.1 °F /  12.3 °C 30.3 in /  1027.3 hPa Calm   1 mph /  1.6 km/h 93 % 0 in /  0.0 mm
23:32 56.1 °F /  13.4 °C 53.8 °F /  12.1 °C 30.3 in /  1027.3 hPa Calm   1 mph /  1.6 km/h 92 % 0 in /  0.0 mm
23:37 55.9 °F /  13.3 °C 53.6 °F /  12.0 °C 30.3 in /  1027.3 hPa Calm   1 mph /  1.6 km/h 92 % 0 in /  0.0 mm
23:42 55.4 °F /  13.0 °C 53.1 °F /  11.7 °C 30.3 in /  1027.3 hPa Calm     92 % 0 in /  0.0 mm
23:47 55.2 °F /  12.9 °C 52.9 °F /  11.6 °C 30.3 in /  1027.3 hPa WNW 2 mph /  3.2 km/h   92 % 0 in /  0.0 mm
23:52 54.9 °F /  12.7 °C 52.9 °F /  11.6 °C 30.3 in /  1027.3 hPa WNW 1 mph /  1.6 km/h 2 mph /  3.2 km/h 93 % 0 in /  0.0 mm
23:57 54.3 °F /  12.4 °C 52.3 °F /  11.3 °C 30.3 in /  1027.0 hPa WNW 1 mph /  1.6 km/h 2 mph /  3.2 km/h 93 % 0 in /  0.0 mm
Meteo18
Compliments of Weather Underground - 4 mb

Script developed by  Jim McMurry - jmcmurry@mwt.net Adapted for the template by  Wim van der Kuil - Leuven-Template.eu

You find our weather info also at:

European Weather Network

Weather Underground

Equipment we use:

Weather-station
Davis Vue

Weather-program
Meteohub

Weather-server
Raspberry PI 2 B+

Provider
1 and 1

Davis Vue

Meteohub

Raspberry PI 2 B+

1 and 1